Time;durP1;ratioP1;P1;durP2;ratioP2;P2;SDS_P1;SDS_P2;PMS_P1;PMS_P2;Temp;Humidity;BMP_temperature;BMP_pressure;BME280_temperature;BME280_humidity;BME280_pressure;Samples;Min_cycle;Max_cycle;Signal;HPM_P1;HPM_P2
2022/06/10 00:00:16;;;;;;;7.05;1.40;;;13.40;99.90;;;;;;5056927;28;20473;-71
2022/06/10 00:02:45;;;;;;;7.30;1.48;;;13.40;99.90;;;;;;5075947;28;20505;-73
2022/06/10 00:05:13;;;;;;;5.57;1.50;;;13.40;99.90;;;;;;5075932;28;20092;-71
2022/06/10 00:07:39;;;;;;;3.10;1.10;;;13.60;99.90;;;;;;5075838;28;20060;-72
2022/06/10 00:10:05;;;;;;;6.45;1.48;;;13.40;99.90;;;;;;5075681;28;20412;-71
2022/06/10 00:12:31;;;;;;;;;;;13.40;99.90;;;;;;5058479;28;20052;-72
2022/06/10 00:14:56;;;;;;;3.72;1.60;;;13.30;99.90;;;;;;5075911;28;19966;-73
2022/06/10 00:17:22;;;;;;;6.88;1.75;;;13.30;99.90;;;;;;5075874;28;20052;-71
2022/06/10 00:19:48;;;;;;;3.08;1.52;;;13.30;99.90;;;;;;5075653;28;20131;-74
2022/06/10 00:22:14;;;;;;;7.70;1.73;;;13.30;99.90;;;;;;5075573;28;20131;-73
2022/06/10 00:24:39;;;;;;;4.57;1.92;;;13.20;99.90;;;;;;5075458;28;20052;-71
2022/06/10 00:27:05;;;;;;;7.53;2.22;;;13.20;99.90;;;;;;5075275;28;20059;-71
2022/06/10 00:29:32;;;;;;;6.22;1.88;;;13.20;99.90;;;;;;5041019;28;20064;-71
2022/06/10 00:31:59;;;;;;;9.75;2.10;;;13.20;99.90;;;;;;5075527;28;20057;-71
2022/06/10 00:34:24;;;;;;;6.72;2.30;;;13.20;99.90;;;;;;5075448;28;20059;-74
2022/06/10 00:36:51;;;;;;;6.10;2.00;;;13.20;99.90;;;;;;5075243;28;20049;-71
2022/06/10 00:39:17;;;;;;;6.32;2.03;;;13.20;99.90;;;;;;5075212;28;20049;-71
2022/06/10 00:41:44;;;;;;;3.47;1.60;;;13.10;99.90;;;;;;5075210;28;20056;-74
2022/06/10 00:44:33;;;;;;;4.82;2.13;;;13.10;99.90;;;;;;5075356;28;20048;-73
2022/06/10 00:47:00;;;;;;;7.40;1.55;;;13.20;99.90;;;;;;5075174;28;20178;-71
2022/06/10 00:49:26;;;;;;;3.20;1.67;;;13.00;99.90;;;;;;5075060;28;20142;-71
2022/06/10 00:51:54;;;;;;;4.97;1.55;;;13.00;99.90;;;;;;5074978;28;20076;-75
2022/06/10 00:54:25;;;;;;;5.45;1.55;;;13.00;99.90;;;;;;5074876;28;20145;-74
2022/06/10 00:57:14;;;;;;;4.57;1.60;;;12.90;99.90;;;;;;5056879;28;20053;-71
2022/06/10 00:59:44;;;;;;;6.53;1.73;;;12.90;99.90;;;;;;5074162;28;20052;-71
2022/06/10 01:02:17;;;;;;;4.85;1.52;;;12.90;99.90;;;;;;5057056;28;20053;-74
2022/06/10 01:04:44;;;;;;;4.75;1.73;;;12.90;99.90;;;;;;5057019;28;20054;-71
2022/06/10 01:07:13;;;;;;;7.22;1.45;;;12.80;99.90;;;;;;5057255;28;20114;-71
2022/06/10 01:09:39;;;;;;;6.95;2.17;;;12.80;99.90;;;;;;5074820;28;20075;-72
2022/06/10 01:12:11;;;;;;;4.88;2.05;;;12.80;99.90;;;;;;5055748;28;20055;-71
2022/06/10 01:14:55;;;;;;;5.70;1.77;;;12.80;99.90;;;;;;5057075;28;20404;-71
2022/06/10 01:17:39;;;;;;;7.63;2.10;;;12.80;99.90;;;;;;5074393;28;20067;-71
2022/06/10 01:20:26;;;;;;;6.15;2.17;;;12.70;99.90;;;;;;5057017;28;20053;-71
2022/06/10 01:23:07;;;;;;;6.63;1.95;;;12.70;99.90;;;;;;5074393;28;20074;-74
2022/06/10 01:26:07;;;;;;;5.28;1.98;;;12.70;99.90;;;;;;5074329;28;20048;-72
2022/06/10 01:28:46;;;;;;;7.43;2.67;;;12.70;99.90;;;;;;5070945;28;20048;-71
2022/06/10 01:31:33;;;;;;;7.07;2.45;;;12.70;99.90;;;;;;5094337;28;20055;-71
2022/06/10 01:34:36;;;;;;;9.73;1.90;;;12.70;99.90;;;;;;5076659;28;20450;-71
2022/06/10 01:37:09;;;;;;;8.23;2.55;;;12.70;99.90;;;;;;5031941;28;20413;-71
2022/06/10 01:40:04;;;;;;;6.25;2.60;;;12.70;99.90;;;;;;5015864;28;20145;-71
2022/06/10 01:42:43;;;;;;;5.00;1.98;;;12.60;99.90;;;;;;4973082;28;20062;-71
2022/06/10 01:45:29;;;;;;;9.45;2.65;;;12.60;99.90;;;;;;4973246;28;20070;-71
2022/06/10 01:48:07;;;;;;;6.57;2.35;;;12.60;99.90;;;;;;4973024;28;20105;-70
2022/06/10 01:50:45;;;;;;;4.20;2.70;;;12.60;99.90;;;;;;4973045;28;20066;-72
2022/06/10 01:53:30;;;;;;;6.28;2.55;;;12.60;99.90;;;;;;4972943;28;20058;-71
2022/06/10 01:56:18;;;;;;;7.50;2.65;;;12.60;99.90;;;;;;4972938;28;20142;-75
2022/06/10 01:59:16;;;;;;;6.60;2.28;;;13.20;99.90;;;;;;4972926;28;20587;-72
2022/06/10 02:01:47;;;;;;;7.15;2.28;;;12.60;99.90;;;;;;4962683;28;20069;-72
2022/06/10 02:04:39;;;;;;;5.63;2.60;;;12.50;99.90;;;;;;4972902;28;20610;-71
2022/06/10 02:07:19;;;;;;;5.20;3.25;;;12.50;99.90;;;;;;4972631;28;20094;-73
2022/06/10 02:09:59;;;;;;;9.10;2.70;;;12.40;99.90;;;;;;4972636;28;20114;-71
2022/06/10 02:12:34;;;;;;;5.20;2.20;;;13.00;99.90;;;;;;4975971;28;20464;-71
2022/06/10 02:15:08;;;;;;;6.53;2.80;;;12.50;99.90;;;;;;5011701;28;20080;-71
2022/06/10 02:17:42;;;;;;;7.72;2.50;;;12.50;99.90;;;;;;5011627;28;20058;-73
2022/06/10 02:20:13;;;;;;;5.68;2.53;;;12.50;99.90;;;;;;5074506;28;20446;-71
2022/06/10 02:22:43;;;;;;;5.68;2.20;;;12.50;99.90;;;;;;5093426;28;20138;-72
2022/06/10 02:25:14;;;;;;;8.13;2.20;;;12.40;99.90;;;;;;5093782;28;20051;-74
2022/06/10 02:27:52;;;;;;;6.47;1.98;;;13.10;99.90;;;;;;5086343;28;20053;-70
2022/06/10 02:30:23;;;;;;;5.28;2.08;;;12.40;99.90;;;;;;5073204;28;20135;-71
2022/06/10 02:32:49;;;;;;;5.88;2.42;;;12.40;99.90;;;;;;5055945;28;20138;-74
2022/06/10 02:35:16;;;;;;;9.25;2.40;;;12.40;99.90;;;;;;5055549;28;20052;-75
2022/06/10 02:37:46;;;;;;;6.65;2.45;;;12.40;99.90;;;;;;5073253;28;20052;-71
2022/06/10 02:40:44;;;;;;;10.55;2.70;;;12.40;99.90;;;;;;5073306;28;20049;-72
2022/06/10 02:43:09;;;;;;;;;;;12.40;99.90;;;;;;5073481;28;20517;-73
2022/06/10 02:45:57;;;;;;;6.50;2.67;;;11.30;99.90;;;;;;5055130;28;19921;-71
2022/06/10 02:48:35;;;;;;;8.82;2.38;;;12.40;99.90;;;;;;5073453;28;20056;-71
2022/06/10 02:51:01;;;;;;;6.78;2.42;;;12.40;99.90;;;;;;5055474;28;20131;-71
2022/06/10 02:53:28;;;;;;;5.90;2.58;;;12.30;99.90;;;;;;5055359;28;20098;-71
2022/06/10 02:55:54;;;;;;;10.13;2.67;;;12.40;99.90;;;;;;5072944;28;20056;-71
2022/06/10 03:01:26;;;;;;;7.28;2.85;;;12.40;99.90;;;;;;5072834;28;20067;-72
2022/06/10 03:04:28;;;;;;;9.93;3.45;;;12.40;99.90;;;;;;5072958;28;20581;-71
2022/06/10 03:07:07;;;;;;;8.38;2.83;;;12.40;99.90;;;;;;5055256;28;20067;-71
2022/06/10 03:09:56;;;;;;;13.27;3.13;;;12.30;99.90;;;;;;5072906;28;20570;-71
2022/06/10 03:12:37;;;;;;;6.70;3.15;;;12.30;99.90;;;;;;5055222;28;20057;-71
2022/06/10 03:15:35;;;;;;;6.07;3.28;;;12.50;99.90;;;;;;5072758;28;20068;-71
2022/06/10 03:18:03;;;;;;;;;;;12.30;99.90;;;;;;5011432;28;20084;-71
2022/06/10 03:21:16;;;;;;;5.35;2.60;;;12.30;99.90;;;;;;5023611;28;19979;-72
2022/06/10 03:24:05;;;;;;;8.13;2.85;;;12.30;99.90;;;;;;4952495;29;20059;-71
2022/06/10 03:26:44;;;;;;;7.10;2.78;;;12.30;99.90;;;;;;4952544;29;20067;-71
2022/06/10 03:29:35;;;;;;;7.40;2.72;;;12.30;99.90;;;;;;4955005;28;20055;-70
2022/06/10 03:32:12;;;;;;;5.72;2.47;;;12.30;99.90;;;;;;4971852;28;20102;-71
2022/06/10 03:34:44;;;;;;;7.57;3.10;;;12.30;99.90;;;;;;4973417;28;20054;-71
2022/06/10 03:37:12;;;;;;;6.75;2.67;;;12.30;99.90;;;;;;4975442;28;20058;-72
2022/06/10 03:39:39;;;;;;;4.63;2.75;;;12.30;99.90;;;;;;4975417;28;20058;-70
2022/06/10 03:42:25;;;;;;;6.13;2.75;;;12.30;99.90;;;;;;4959535;28;20069;-73
2022/06/10 03:44:54;;;;;;;7.47;3.13;;;12.20;99.90;;;;;;4975349;28;20602;-73
2022/06/10 03:47:25;;;;;;;4.45;1.95;;;12.20;99.90;;;;;;4959191;28;20070;-71
2022/06/10 03:49:57;;;;;;;8.15;3.00;;;12.20;99.90;;;;;;4975233;28;20057;-71
2022/06/10 03:52:26;;;;;;;6.97;2.80;;;12.20;99.90;;;;;;4975183;28;20476;-71
2022/06/10 03:54:52;;;;;;;6.85;3.08;;;12.20;99.90;;;;;;5005156;28;20183;-71
2022/06/10 03:57:18;;;;;;;7.53;3.33;;;12.30;99.90;;;;;;5034047;28;20144;-71
2022/06/10 03:59:44;;;;;;;7.05;2.72;;;12.20;99.90;;;;;;5055289;28;20040;-71
2022/06/10 04:02:10;;;;;;;6.75;2.88;;;12.40;99.90;;;;;;5078519;28;20056;-71
2022/06/10 04:04:38;;;;;;;5.60;2.63;;;12.20;99.90;;;;;;5078421;28;20492;-70
2022/06/10 04:07:04;;;;;;;6.18;2.47;;;12.20;99.90;;;;;;5096008;28;20059;-71
2022/06/10 04:09:30;;;;;;;6.63;2.95;;;12.20;99.90;;;;;;5061327;28;20052;-71
2022/06/10 04:11:56;;;;;;;4.88;2.63;;;12.20;99.90;;;;;;5096277;28;20152;-72
2022/06/10 04:14:21;;;;;;;9.13;3.15;;;12.20;99.90;;;;;;5078316;28;20117;-72
2022/06/10 04:16:47;;;;;;;6.30;2.75;;;12.20;99.90;;;;;;5096156;28;20416;-71
2022/06/10 04:19:14;;;;;;;6.25;3.10;;;12.20;99.90;;;;;;5095960;28;20063;-71
2022/06/10 04:21:40;;;;;;;7.25;3.03;;;12.30;99.90;;;;;;5095821;28;20056;-71
2022/06/10 04:24:06;;;;;;;6.13;3.10;;;12.20;99.90;;;;;;5095602;28;20052;-70
2022/06/10 04:26:32;;;;;;;7.07;2.75;;;12.20;99.90;;;;;;5095642;28;20497;-71
2022/06/10 04:28:58;;;;;;;5.55;3.35;;;12.30;99.90;;;;;;5079240;28;20493;-71
2022/06/10 04:31:24;;;;;;;8.52;2.67;;;12.30;99.90;;;;;;5075405;28;20131;-71
2022/06/10 04:33:49;;;;;;;7.88;3.08;;;12.30;99.90;;;;;;5075443;28;20060;-70
2022/06/10 04:36:17;;;;;;;7.20;2.47;;;12.30;99.90;;;;;;5075466;28;20044;-71
2022/06/10 04:38:43;;;;;;;10.73;3.28;;;12.30;99.90;;;;;;5075154;28;20056;-71
2022/06/10 04:41:10;;;;;;;9.85;3.35;;;12.40;99.90;;;;;;5075194;28;20048;-71
2022/06/10 04:43:36;;;;;;;;;;;12.40;99.90;;;;;;5075811;28;20633;-71
2022/06/10 04:46:05;;;;;;;5.97;2.92;;;12.40;99.90;;;;;;5057126;28;19989;-71
2022/06/10 04:48:31;;;;;;;7.03;3.15;;;12.40;99.90;;;;;;5075193;28;20055;-70
2022/06/10 04:50:58;;;;;;;6.95;2.80;;;12.40;99.90;;;;;;5057463;28;20489;-73
2022/06/10 04:53:23;;;;;;;6.30;3.03;;;12.50;99.90;;;;;;5075016;28;20052;-71
2022/06/10 04:55:50;;;;;;;10.10;3.45;;;12.50;99.90;;;;;;5057229;28;20182;-71
2022/06/10 04:58:16;;;;;;;7.68;4.28;;;12.50;99.90;;;;;;5075109;28;20056;-72
2022/06/10 05:00:47;;;;;;;6.15;3.70;;;12.70;99.90;;;;;;5057262;28;20064;-71
2022/06/10 05:03:15;;;;;;;5.53;2.58;;;12.70;99.90;;;;;;5057021;28;20437;-72
2022/06/10 05:05:42;;;;;;;8.60;3.22;;;12.70;99.90;;;;;;5057234;28;20052;-70
2022/06/10 05:08:10;;;;;;;4.97;2.65;;;12.80;99.90;;;;;;5074600;28;20504;-71
2022/06/10 05:10:36;;;;;;;8.40;2.97;;;12.90;99.90;;;;;;5074538;28;20063;-72
2022/06/10 05:13:02;;;;;;;7.85;2.95;;;12.90;99.90;;;;;;5074815;28;20111;-71
2022/06/10 05:15:28;;;;;;;8.05;2.85;;;12.90;99.90;;;;;;5074840;28;20493;-74
2022/06/10 05:17:56;;;;;;;7.05;2.85;;;13.00;99.90;;;;;;5074660;28;20139;-70
2022/06/10 05:20:28;;;;;;;5.97;2.58;;;13.10;99.90;;;;;;5074524;28;20052;-74
2022/06/10 05:22:53;;;;;;;10.98;3.58;;;13.10;99.90;;;;;;5074269;28;20092;-72
2022/06/10 05:25:19;;;;;;;6.03;2.78;;;13.20;99.90;;;;;;5074614;28;20130;-71
2022/06/10 05:27:45;;;;;;;21.67;3.65;;;13.30;99.90;;;;;;5074314;28;20056;-71
2022/06/10 05:30:20;;;;;;;8.10;3.40;;;13.30;99.90;;;;;;5039210;28;20346;-71
2022/06/10 05:32:45;;;;;;;7.65;2.65;;;13.40;99.90;;;;;;5056521;28;20131;-72
2022/06/10 05:35:12;;;;;;;6.78;2.33;;;13.40;99.90;;;;;;5073281;28;20061;-72
2022/06/10 05:37:37;;;;;;;8.27;2.83;;;13.50;99.90;;;;;;5074043;28;20119;-70
2022/06/10 05:40:04;;;;;;;6.20;3.25;;;13.60;99.90;;;;;;5074340;28;20080;-71
2022/06/10 05:42:30;;;;;;;5.63;2.85;;;13.60;99.90;;;;;;5074151;28;20056;-73
2022/06/10 05:44:56;;;;;;;10.15;3.20;;;13.70;99.90;;;;;;5074184;28;20102;-71
2022/06/10 05:47:25;;;;;;;8.25;3.03;;;13.70;99.90;;;;;;5074053;28;20126;-71
2022/06/10 05:49:54;;;;;;;6.15;3.15;;;13.80;99.90;;;;;;5073761;28;20471;-71
2022/06/10 05:52:22;;;;;;;8.40;3.28;;;13.90;99.90;;;;;;5073725;28;20058;-71
2022/06/10 05:54:49;;;;;;;6.60;3.08;;;13.90;99.90;;;;;;5073999;28;20053;-71
2022/06/10 05:57:15;;;;;;;10.52;3.42;;;14.00;99.90;;;;;;5073272;28;20092;-71
2022/06/10 05:59:41;;;;;;;6.82;3.20;;;14.20;99.90;;;;;;5073743;28;20060;-72
2022/06/10 06:02:09;;;;;;;;;;;14.20;99.90;;;;;;5056624;28;20059;-71
2022/06/10 06:04:35;;;;;;;4.20;2.83;;;14.40;99.90;;;;;;5056126;28;20372;-70
2022/06/10 06:07:00;;;;;;;7.97;3.08;;;14.40;99.90;;;;;;5073515;28;20114;-72
2022/06/10 06:09:27;;;;;;;9.15;3.00;;;14.60;99.90;;;;;;5073703;28;20409;-71
2022/06/10 06:11:56;;;;;;;;;;;14.60;99.90;;;;;;5074091;28;20424;-72
2022/06/10 06:14:22;;;;;;;6.25;3.00;;;14.70;99.90;;;;;;5056002;28;19970;-70
2022/06/10 06:16:58;;;;;;;6.20;3.08;;;15.00;99.90;;;;;;5073586;28;20044;-73
2022/06/10 06:19:25;;;;;;;9.75;2.60;;;14.90;99.90;;;;;;5073349;28;20494;-71
2022/06/10 06:21:51;;;;;;;7.53;3.83;;;14.90;99.90;;;;;;5073281;28;20059;-71
2022/06/10 06:24:17;;;;;;;11.60;3.42;;;15.00;99.90;;;;;;5055840;28;20463;-71
2022/06/10 06:26:43;;;;;;;7.68;2.85;;;15.00;99.90;;;;;;5073444;28;20171;-71
2022/06/10 06:29:09;;;;;;;8.15;3.10;;;15.10;99.90;;;;;;5073345;28;20051;-71
2022/06/10 06:31:35;;;;;;;;;;;15.20;99.90;;;;;;5073635;28;20045;-74
2022/06/10 06:34:00;;;;;;;9.13;2.65;;;15.20;99.90;;;;;;5071951;28;19921;-71
2022/06/10 06:36:27;;;;;;;5.60;2.58;;;15.30;99.90;;;;;;5073056;28;20048;-72
2022/06/10 06:38:53;;;;;;;6.00;2.80;;;15.30;99.90;;;;;;5038550;28;20080;-72
2022/06/10 06:41:20;;;;;;;7.28;3.47;;;15.40;99.90;;;;;;5054702;28;20099;-71
2022/06/10 06:43:45;;;;;;;8.30;2.63;;;15.40;99.90;;;;;;5055483;28;20053;-71
2022/06/10 06:46:13;;;;;;;9.00;2.88;;;15.50;99.90;;;;;;5055363;28;20147;-70
2022/06/10 06:48:40;;;;;;;9.90;3.30;;;15.50;99.90;;;;;;5073015;28;20059;-71
2022/06/10 06:51:06;;;;;;;7.57;2.75;;;15.50;99.90;;;;;;5072968;28;20131;-71
2022/06/10 06:53:34;;;;;;;7.82;4.05;;;15.60;99.90;;;;;;5072948;28;20588;-71
2022/06/10 06:56:04;;;;;;;11.23;3.22;;;15.60;99.90;;;;;;5073069;28;20103;-71
2022/06/10 06:58:31;;;;;;;5.97;2.80;;;15.60;99.90;;;;;;5055401;28;20572;-74
2022/06/10 07:00:56;;;;;;;6.85;3.45;;;15.70;99.90;;;;;;5055202;28;20508;-71
2022/06/10 07:03:22;;;;;;;13.15;4.72;;;15.70;99.90;;;;;;5055105;28;20057;-72
2022/06/10 07:05:49;;;;;;;13.70;3.50;;;15.70;99.90;;;;;;5072808;28;20496;-75
2022/06/10 07:08:17;;;;;;;8.57;3.10;;;15.70;99.90;;;;;;5074106;28;20052;-75
2022/06/10 07:10:43;;;;;;;6.90;2.72;;;15.70;99.90;;;;;;5076985;28;20048;-71
2022/06/10 07:13:09;;;;;;;7.25;2.70;;;15.70;99.90;;;;;;5077185;28;20102;-71
2022/06/10 07:15:37;;;;;;;8.30;2.70;;;15.70;99.90;;;;;;5059304;28;20053;-71
2022/06/10 07:18:03;;;;;;;9.93;2.45;;;15.70;99.90;;;;;;5076756;28;20056;-79
2022/06/10 07:20:34;;;;;;;10.20;2.80;;;15.70;99.90;;;;;;5076790;28;20052;-73
2022/06/10 07:23:00;;;;;;;7.75;3.47;;;15.70;99.90;;;;;;5076816;28;20052;-76
2022/06/10 07:25:28;;;;;;;10.07;3.80;;;15.70;99.90;;;;;;5076695;28;20063;-74
2022/06/10 07:27:55;;;;;;;10.07;3.70;;;15.70;99.90;;;;;;5076725;28;20063;-73
2022/06/10 07:30:24;;;;;;;9.02;2.88;;;15.70;99.90;;;;;;5075304;28;20110;-73
2022/06/10 07:32:50;;;;;;;8.00;2.85;;;15.70;99.90;;;;;;5054263;28;20136;-72
2022/06/10 07:35:18;;;;;;;8.73;3.08;;;15.70;99.90;;;;;;5087515;28;20079;-72
2022/06/10 07:37:45;;;;;;;10.25;4.00;;;15.70;99.90;;;;;;5096776;28;20075;-72
2022/06/10 07:43:04;;;;;;;8.77;3.30;;;15.70;99.90;;;;;;5096408;28;20056;-72
2022/06/10 07:45:31;;;;;;;18.20;6.28;;;15.70;99.90;;;;;;5096581;28;20048;-73
2022/06/10 07:47:57;;;;;;;11.85;3.67;;;15.70;99.90;;;;;;5096399;28;20054;-74
2022/06/10 07:50:23;;;;;;;10.38;3.33;;;15.80;99.90;;;;;;5096613;28;20048;-74
2022/06/10 07:52:50;;;;;;;10.43;3.20;;;15.70;99.90;;;;;;5096052;28;20052;-72
2022/06/10 07:55:17;;;;;;;13.82;4.30;;;15.70;99.90;;;;;;5078539;28;20048;-72
2022/06/10 07:57:42;;;;;;;7.40;3.50;;;15.80;99.90;;;;;;5078465;28;20051;-72
2022/06/10 08:00:10;;;;;;;6.95;3.05;;;15.80;99.90;;;;;;5095751;28;20052;-74
2022/06/10 08:02:37;;;;;;;10.48;3.42;;;15.90;99.90;;;;;;5072248;28;20157;-71
2022/06/10 08:05:08;;;;;;;7.75;3.67;;;15.90;99.90;;;;;;5069927;28;20056;-71
2022/06/10 08:07:37;;;;;;;10.52;3.92;;;15.90;99.90;;;;;;5075958;28;20102;-72
2022/06/10 08:10:04;;;;;;;10.98;3.95;;;15.90;99.90;;;;;;5075833;28;20123;-72
2022/06/10 08:12:30;;;;;;;9.13;4.60;;;15.90;99.90;;;;;;5075802;28;20067;-72
2022/06/10 08:14:55;;;;;;;8.73;4.15;;;15.90;99.90;;;;;;5075669;28;20048;-73
2022/06/10 08:17:21;;;;;;;8.27;3.58;;;15.90;99.90;;;;;;5075686;28;20064;-72
2022/06/10 08:19:47;;;;;;;11.77;4.63;;;15.90;99.90;;;;;;5075195;28;20044;-72
2022/06/10 08:25:16;;;;;;;7.93;4.03;;;15.90;99.90;;;;;;5075530;28;20047;-72
2022/06/10 08:27:43;;;;;;;6.15;4.13;;;15.90;99.90;;;;;;5085470;28;20465;-72
2022/06/10 08:30:14;;;;;;;9.38;3.80;;;15.90;99.90;;;;;;5115579;28;20059;-72
2022/06/10 08:32:41;;;;;;;10.15;4.18;;;15.90;99.90;;;;;;5116070;28;20056;-72
2022/06/10 08:35:09;;;;;;;14.23;4.97;;;15.80;99.90;;;;;;5115813;28;20056;-72
2022/06/10 08:37:48;;;;;;;12.63;5.20;;;15.90;99.90;;;;;;5115695;28;20465;-72
2022/06/10 08:40:30;;;;;;;11.75;4.95;;;16.00;99.90;;;;;;5115783;28;20051;-73
2022/06/10 08:43:08;;;;;;;9.32;4.65;;;16.00;99.90;;;;;;5097716;28;20052;-73
2022/06/10 08:45:57;;;;;;;10.93;4.85;;;16.00;99.90;;;;;;5097663;28;20442;-73
2022/06/10 08:48:26;;;;;;;10.80;4.85;;;16.00;99.90;;;;;;5115536;28;20410;-73
2022/06/10 08:51:18;;;;;;;11.38;5.18;;;16.10;99.90;;;;;;5115330;28;20122;-72
2022/06/10 08:53:48;;;;;;;11.32;4.38;;;16.10;99.90;;;;;;5115466;28;20055;-73
2022/06/10 08:56:22;;;;;;;11.40;4.45;;;16.10;99.90;;;;;;5097326;28;20047;-73
2022/06/10 08:58:59;;;;;;;8.60;5.43;;;16.10;99.90;;;;;;5115217;28;20054;-72
2022/06/10 09:01:28;;;;;;;7.97;5.00;;;16.10;99.90;;;;;;5114844;28;20044;-73
2022/06/10 09:04:15;;;;;;;5.60;4.20;;;16.10;99.90;;;;;;5114979;28;20055;-74
2022/06/10 09:06:55;;;;;;;12.38;5.90;;;16.10;99.90;;;;;;5115333;28;20056;-73
2022/06/10 09:09:27;;;;;;;7.35;4.93;;;16.10;99.90;;;;;;5115014;28;20112;-72
2022/06/10 09:12:08;;;;;;;7.18;4.53;;;16.10;99.90;;;;;;5114921;28;20138;-73
2022/06/10 09:14:36;;;;;;;13.50;5.38;;;16.10;99.90;;;;;;5115167;28;20047;-73
2022/06/10 09:17:12;;;;;;;9.68;5.72;;;16.10;99.90;;;;;;5097153;28;20052;-72
2022/06/10 09:20:21;;;;;;;13.68;5.20;;;16.20;99.90;;;;;;5114999;28;20500;-71
2022/06/10 09:23:17;;;;;;;8.73;4.88;;;16.20;99.90;;;;;;5114993;28;20056;-71
2022/06/10 09:25:46;;;;;;;8.40;5.25;;;16.20;99.90;;;;;;5096903;28;20116;-72
2022/06/10 09:28:12;;;;;;;9.75;5.88;;;16.30;99.90;;;;;;5114832;28;20403;-71
2022/06/10 09:30:51;;;;;;;10.50;5.68;;;16.30;99.90;;;;;;5114373;28;20055;-71
2022/06/10 09:33:42;;;;;;;9.93;5.93;;;16.30;99.90;;;;;;5113862;28;20051;-72
2022/06/10 09:36:22;;;;;;;9.90;5.18;;;16.20;99.90;;;;;;5114741;28;20428;-70
2022/06/10 09:42:19;;;;;;;8.85;5.65;;;16.30;99.90;;;;;;5031622;28;20053;-71
2022/06/10 09:45:00;;;;;;;10.73;6.03;;;16.30;99.90;;;;;;5031664;28;20053;-71
2022/06/10 09:47:47;;;;;;;9.35;5.35;;;16.30;99.90;;;;;;5031796;28;20053;-72
2022/06/10 09:50:40;;;;;;;8.77;5.63;;;16.30;99.90;;;;;;5031544;28;20490;-72
2022/06/10 09:53:45;;;;;;;12.05;4.90;;;16.40;99.90;;;;;;5031542;28;20067;-71
2022/06/10 09:56:41;;;;;;;16.02;5.93;;;16.40;99.90;;;;;;5031575;28;20064;-72
2022/06/10 09:59:21;;;;;;;14.68;6.53;;;16.50;99.90;;;;;;5031549;28;20414;-70
2022/06/10 10:02:14;;;;;;;10.00;5.45;;;16.50;99.90;;;;;;5015117;28;20064;-71
2022/06/10 10:04:51;;;;;;;10.70;5.70;;;16.60;99.90;;;;;;5031472;28;20599;-72
2022/06/10 10:07:37;;;;;;;14.85;5.28;;;16.60;99.90;;;;;;5031601;28;20053;-70
2022/06/10 10:10:29;;;;;;;9.77;4.88;;;16.60;99.90;;;;;;5009751;28;20208;-70
2022/06/10 10:13:13;;;;;;;9.75;4.13;;;16.60;99.90;;;;;;5011793;28;20068;-70
2022/06/10 10:15:51;;;;;;;11.02;5.05;;;16.60;99.90;;;;;;5011750;28;20061;-70
2022/06/10 10:18:38;;;;;;;14.43;4.68;;;16.60;99.90;;;;;;5076944;28;20067;-71
2022/06/10 10:21:13;;;;;;;11.80;4.28;;;16.60;99.90;;;;;;5093420;28;20151;-71
2022/06/10 10:23:55;;;;;;;5.88;4.32;;;16.60;99.90;;;;;;5093752;28;20109;-72
2022/06/10 10:26:25;;;;;;;8.50;4.25;;;16.60;99.90;;;;;;5093656;28;20117;-71
2022/06/10 10:29:16;;;;;;;11.95;5.30;;;16.50;99.90;;;;;;5078350;28;20057;-73
2022/06/10 10:31:51;;;;;;;8.65;4.50;;;16.50;99.90;;;;;;5073436;28;20052;-72
2022/06/10 10:34:22;;;;;;;9.27;4.95;;;16.50;99.90;;;;;;5055647;28;20060;-70
2022/06/10 10:36:54;;;;;;;12.50;4.72;;;16.50;99.90;;;;;;5073340;28;20114;-72
2022/06/10 10:39:29;;;;;;;15.75;5.38;;;16.50;99.90;;;;;;5073213;28;20052;-71
2022/06/10 10:42:23;;;;;;;8.68;4.35;;;16.50;99.90;;;;;;5055519;28;20147;-71
2022/06/10 10:45:06;;;;;;;7.47;4.45;;;16.50;99.90;;;;;;5069214;28;20064;-72
2022/06/10 10:47:34;;;;;;;8.40;4.57;;;16.60;99.90;;;;;;5073137;28;20417;-71
2022/06/10 10:50:06;;;;;;;10.68;4.43;;;16.60;99.90;;;;;;5055174;28;20139;-71
2022/06/10 10:52:34;;;;;;;8.18;4.30;;;16.60;99.90;;;;;;5073085;28;20049;-70
2022/06/10 10:55:11;;;;;;;7.72;4.72;;;16.60;99.90;;;;;;5072927;28;20060;-72
2022/06/10 10:57:42;;;;;;;12.75;5.00;;;16.70;99.90;;;;;;5073138;28;20055;-72
2022/06/10 11:00:42;;;;;;;10.20;5.10;;;16.80;99.90;;;;;;5073067;28;20063;-71
2022/06/10 11:03:25;;;;;;;6.32;4.15;;;16.90;99.90;;;;;;5072775;28;20048;-71
2022/06/10 11:05:52;;;;;;;7.88;4.40;;;17.00;99.90;;;;;;5073096;28;20045;-72
2022/06/10 11:08:32;;;;;;;7.95;4.35;;;17.10;99.90;;;;;;5072988;28;20390;-70
2022/06/10 11:11:25;;;;;;;8.13;3.70;;;17.20;99.90;;;;;;5072727;28;20051;-71
2022/06/10 11:13:59;;;;;;;8.80;4.20;;;17.20;99.90;;;;;;5072638;28;20489;-71
2022/06/10 11:16:27;;;;;;;7.60;4.57;;;17.20;99.90;;;;;;5072940;28;20174;-71
2022/06/10 11:19:00;;;;;;;10.07;4.30;;;17.30;99.90;;;;;;5072849;28;20096;-72
2022/06/10 11:21:27;;;;;;;7.18;3.92;;;17.30;99.90;;;;;;5055106;28;20052;-74
2022/06/10 11:23:56;;;;;;;6.93;3.95;;;17.30;99.90;;;;;;5073363;28;20048;-71
2022/06/10 11:26:24;;;;;;;11.77;4.85;;;17.30;99.90;;;;;;5072645;28;20068;-71
2022/06/10 11:29:00;;;;;;;10.23;4.22;;;17.40;99.90;;;;;;5072439;28;20052;-71
2022/06/10 11:31:38;;;;;;;7.95;4.05;;;17.30;99.90;;;;;;5072647;28;20060;-71
2022/06/10 11:34:05;;;;;;;8.20;4.03;;;17.40;99.90;;;;;;5072516;28;20056;-71
2022/06/10 11:36:43;;;;;;;6.25;3.88;;;17.40;99.90;;;;;;5072630;28;20436;-71
2022/06/10 11:39:33;;;;;;;6.88;3.08;;;17.50;99.90;;;;;;5072734;28;20105;-70
2022/06/10 11:42:07;;;;;;;6.90;3.75;;;17.60;99.90;;;;;;5072683;28;20087;-70
2022/06/10 11:44:54;;;;;;;9.38;4.40;;;17.60;99.90;;;;;;5072621;28;20512;-71
2022/06/10 11:47:27;;;;;;;7.95;3.30;;;17.80;99.90;;;;;;5071782;28;20538;-72
2022/06/10 11:50:02;;;;;;;8.63;4.05;;;17.90;99.90;;;;;;5072549;28;20443;-70
2022/06/10 11:52:37;;;;;;;7.13;2.92;;;17.90;99.90;;;;;;5072611;28;20134;-71
2022/06/10 11:55:17;;;;;;;8.25;3.67;;;18.00;99.90;;;;;;5073263;28;20122;-72
2022/06/10 12:00:48;;;;;;;9.27;3.33;;;18.10;99.90;;;;;;5076128;28;20574;-72
2022/06/10 12:03:32;;;;;;;6.35;3.10;;;18.20;99.90;;;;;;5075938;28;20056;-72
2022/06/10 12:06:05;;;;;;;8.15;2.60;;;18.30;99.90;;;;;;5075939;28;20535;-73
2022/06/10 12:08:45;;;;;;;7.18;3.33;;;18.30;99.90;;;;;;5075994;28;20049;-72
2022/06/10 12:11:39;;;;;;;7.55;2.50;;;18.50;99.90;;;;;;5076022;28;20048;-72
2022/06/10 12:14:40;;;;;;;9.63;2.47;;;18.60;99.90;;;;;;5073533;28;20052;-73
2022/06/10 12:17:20;;;;;;;9.35;2.58;;;18.70;99.90;;;;;;5075931;28;20052;-71
2022/06/10 12:19:55;;;;;;;6.35;2.75;;;18.80;99.90;;;;;;5075801;28;20045;-71
2022/06/10 12:22:21;;;;;;;12.20;2.80;;;18.80;99.90;;;;;;5075627;28;20385;-71
2022/06/10 12:24:49;;;;;;;7.07;2.47;;;18.90;99.90;;;;;;5075520;28;20114;-74
2022/06/10 12:27:25;;;;;;;7.88;2.60;;;18.90;99.90;;;;;;5077020;28;20048;-72
2022/06/10 12:30:12;;;;;;;7.95;2.92;;;18.90;99.90;;;;;;5095802;28;20044;-71
2022/06/10 12:33:04;;;;;;;7.93;3.15;;;19.00;99.90;;;;;;5095939;28;20060;-71
2022/06/10 12:35:36;;;;;;;4.30;2.33;;;19.00;99.90;;;;;;5077506;28;20147;-72
2022/06/10 12:38:21;;;;;;;8.40;2.65;;;19.00;99.90;;;;;;5095765;28;20044;-71
2022/06/10 12:40:53;;;;;;;4.40;2.33;;;19.00;99.90;;;;;;5061173;28;20063;-71
2022/06/10 12:43:24;;;;;;;8.15;3.05;;;19.00;99.90;;;;;;5095593;28;20079;-72
2022/06/10 12:45:58;;;;;;;7.07;2.90;;;19.10;99.90;;;;;;5095495;28;20067;-71
2022/06/10 12:48:32;;;;;;;5.22;2.83;;;19.10;99.90;;;;;;5077525;28;20078;-71
2022/06/10 12:51:13;;;;;;;5.60;2.92;;;19.10;99.90;;;;;;5095474;28;20079;-72
2022/06/10 12:53:52;;;;;;;6.38;2.90;;;19.10;99.90;;;;;;5095395;28;20245;-71
2022/06/10 12:56:20;;;;;;;8.02;3.08;;;19.00;99.90;;;;;;5095244;28;20092;-71
2022/06/10 12:59:07;;;;;;;6.13;2.92;;;19.00;99.90;;;;;;5077158;28;20062;-72
2022/06/10 13:01:33;;;;;;;6.35;2.80;;;19.00;99.90;;;;;;5095356;28;20048;-73
2022/06/10 13:04:01;;;;;;;6.00;3.03;;;19.00;99.90;;;;;;5093755;28;20054;-71
2022/06/10 13:06:42;;;;;;;6.55;2.88;;;19.00;99.90;;;;;;5095042;28;20056;-71
2022/06/10 13:09:11;;;;;;;4.93;3.17;;;19.00;99.90;;;;;;5094923;28;20044;-71
2022/06/10 13:11:52;;;;;;;6.00;2.70;;;19.00;99.90;;;;;;5095136;28;20062;-70
2022/06/10 13:14:23;;;;;;;5.05;2.65;;;19.10;99.90;;;;;;5095091;28;20131;-71
2022/06/10 13:16:58;;;;;;;6.43;2.38;;;19.10;99.90;;;;;;5094892;28;20055;-72
2022/06/10 13:19:39;;;;;;;4.50;2.30;;;19.10;99.90;;;;;;5094305;28;20055;-72
2022/06/10 13:22:17;;;;;;;11.73;3.95;;;19.10;99.90;;;;;;5094963;28;20052;-73
2022/06/10 13:24:44;;;;;;;4.18;2.55;;;19.20;99.90;;;;;;5059932;28;20142;-72
2022/06/10 13:27:19;;;;;;;5.60;2.63;;;19.20;99.90;;;;;;5093593;28;20058;-71
2022/06/10 13:29:50;;;;;;;4.60;2.25;;;19.10;99.90;;;;;;5094430;28;20522;-72
2022/06/10 13:32:16;;;;;;;5.00;2.35;;;19.10;99.90;;;;;;5094354;28;20077;-72